createdAt,value
2023-02-19T00:01:59.005Z,9.08
2023-02-19T00:04:27.251Z,9.06
2023-02-19T00:06:55.236Z,9.06
2023-02-19T00:09:23.463Z,9.08
2023-02-19T00:11:51.797Z,9.01
2023-02-19T00:14:22.425Z,9.04
2023-02-19T00:16:51.895Z,9.02
2023-02-19T00:19:22.486Z,9.03
2023-02-19T00:21:52.905Z,8.99
2023-02-19T00:24:22.202Z,8.99
2023-02-19T00:26:50.491Z,8.98
2023-02-19T00:29:20.690Z,8.93
2023-02-19T00:31:49.225Z,8.90
2023-02-19T00:34:18.664Z,8.93
2023-02-19T00:36:46.713Z,8.96
2023-02-19T00:39:16.354Z,8.89
2023-02-19T00:41:46.468Z,8.92
2023-02-19T00:44:15.668Z,8.92
2023-02-19T00:46:46.314Z,8.93
2023-02-19T00:49:21.353Z,8.92
2023-02-19T00:51:50.292Z,8.89
2023-02-19T00:54:18.610Z,8.88
2023-02-19T00:56:47.911Z,8.84
2023-02-19T00:59:16.734Z,8.84
2023-02-19T01:01:46.164Z,8.79
2023-02-19T01:04:16.817Z,8.80
2023-02-19T01:06:46.268Z,8.86
2023-02-19T01:09:14.381Z,8.83
2023-02-19T01:11:42.511Z,8.82
2023-02-19T01:14:10.973Z,8.80
2023-02-19T01:16:39.330Z,8.79
2023-02-19T01:19:07.421Z,8.74
2023-02-19T01:21:35.451Z,8.75
2023-02-19T01:24:05.382Z,8.77
2023-02-19T01:26:34.321Z,8.75
2023-02-19T01:29:05.825Z,8.75
2023-02-19T01:31:34.357Z,8.77
2023-02-19T01:34:06.487Z,8.72
2023-02-19T01:36:35.600Z,8.79
2023-02-19T01:39:06.793Z,8.74
2023-02-19T01:41:38.973Z,8.76
2023-02-19T01:44:08.995Z,8.72
2023-02-19T01:46:38.373Z,8.74
2023-02-19T01:49:13.970Z,8.79
2023-02-19T01:51:47.538Z,8.73
2023-02-19T01:54:21.202Z,8.69
2023-02-19T01:56:51.182Z,8.72
2023-02-19T01:59:20.093Z,8.70
2023-02-19T02:01:48.385Z,8.76
2023-02-19T02:04:18.482Z,8.73
2023-02-19T02:06:51.406Z,8.73
2023-02-19T02:09:37.170Z,8.68
2023-02-19T02:12:05.962Z,8.66
2023-02-19T02:14:37.857Z,8.63
2023-02-19T02:17:17.384Z,8.62
2023-02-19T02:20:03.810Z,8.66
2023-02-19T02:22:36.346Z,8.62
2023-02-19T02:25:34.720Z,8.61
2023-02-19T02:28:18.417Z,8.52
2023-02-19T02:30:51.730Z,8.51
2023-02-19T02:33:28.296Z,8.52
2023-02-19T02:36:00.472Z,8.49
2023-02-19T02:38:31.154Z,8.51
2023-02-19T02:40:59.695Z,8.49
2023-02-19T02:43:27.850Z,8.50
2023-02-19T02:45:57.382Z,8.52
2023-02-19T02:48:29.995Z,8.49
2023-02-19T02:51:03.823Z,8.50
2023-02-19T02:53:55.162Z,8.45
2023-02-19T02:56:24.483Z,8.43
2023-02-19T02:58:54.311Z,8.43
2023-02-19T03:01:44.066Z,8.47
2023-02-19T03:04:17.451Z,8.40
2023-02-19T03:06:48.879Z,8.46
2023-02-19T03:09:23.328Z,8.48
2023-02-19T03:12:11.979Z,8.45
2023-02-19T03:15:02.263Z,8.42
2023-02-19T03:17:54.486Z,8.46
2023-02-19T03:20:24.956Z,8.45
2023-02-19T03:22:54.761Z,8.45
2023-02-19T03:25:43.657Z,8.47
2023-02-19T03:28:16.208Z,8.44
2023-02-19T03:30:48.991Z,8.42
2023-02-19T03:33:20.210Z,8.44
2023-02-19T03:35:53.577Z,8.43
2023-02-19T03:38:26.684Z,8.48
2023-02-19T03:41:01.037Z,8.42
2023-02-19T03:43:38.736Z,8.43
2023-02-19T03:46:11.533Z,8.45
2023-02-19T03:48:44.182Z,8.40
2023-02-19T03:51:28.781Z,8.46
2023-02-19T03:54:05.067Z,8.41
2023-02-19T03:56:39.515Z,8.43
2023-02-19T03:59:14.580Z,8.41
2023-02-19T04:01:47.117Z,8.44
2023-02-19T04:04:19.400Z,8.44
2023-02-19T04:06:54.574Z,8.45
2023-02-19T04:09:24.092Z,8.43
2023-02-19T04:11:53.886Z,8.44
2023-02-19T04:14:26.460Z,8.45
2023-02-19T04:17:00.137Z,8.47
2023-02-19T04:19:32.075Z,8.45
2023-02-19T04:22:01.996Z,8.47
2023-02-19T04:24:36.466Z,8.40
2023-02-19T04:27:06.393Z,8.39
2023-02-19T04:29:34.506Z,8.44
2023-02-19T04:32:02.963Z,8.46
2023-02-19T04:34:32.615Z,8.44
2023-02-19T04:37:00.703Z,8.40
2023-02-19T04:39:28.768Z,8.42
2023-02-19T04:41:56.863Z,8.46
2023-02-19T04:44:24.902Z,8.37
2023-02-19T04:46:53.158Z,8.35
2023-02-19T04:49:23.999Z,8.35
2023-02-19T04:51:56.581Z,8.34
2023-02-19T04:54:24.784Z,8.31
2023-02-19T04:56:52.832Z,8.35
2023-02-19T04:59:20.991Z,8.42
2023-02-19T05:01:49.027Z,8.36
2023-02-19T05:04:17.258Z,8.35
2023-02-19T05:06:45.322Z,8.33
2023-02-19T05:09:14.889Z,8.34
2023-02-19T05:11:45.960Z,8.33
2023-02-19T05:14:14.053Z,8.34
2023-02-19T05:16:42.138Z,8.32
2023-02-19T05:19:12.487Z,8.35
2023-02-19T05:21:40.681Z,8.37
2023-02-19T05:24:09.335Z,8.35
2023-02-19T05:26:44.036Z,8.31
2023-02-19T05:29:12.903Z,8.31
2023-02-19T05:31:40.962Z,8.27
2023-02-19T05:34:09.097Z,8.27
2023-02-19T05:36:37.567Z,8.27
2023-02-19T05:39:06.340Z,8.30
2023-02-19T05:41:34.416Z,8.32
2023-02-19T05:44:03.897Z,8.28
2023-02-19T05:46:32.004Z,8.31
2023-02-19T05:49:00.462Z,8.26
2023-02-19T05:51:28.931Z,8.31
2023-02-19T05:53:57.983Z,8.26
2023-02-19T05:56:31.741Z,8.25
2023-02-19T05:59:00.495Z,8.26
2023-02-19T06:01:30.821Z,8.26
2023-02-19T06:03:59.347Z,8.34
2023-02-19T06:06:27.818Z,8.21
2023-02-19T06:08:56.286Z,8.22
2023-02-19T06:11:25.213Z,8.25
2023-02-19T06:13:53.253Z,8.21
2023-02-19T06:16:22.099Z,8.21
2023-02-19T06:18:52.160Z,8.22
2023-02-19T06:21:20.965Z,8.20
2023-02-19T06:23:49.140Z,8.16
2023-02-19T06:26:20.103Z,8.15
2023-02-19T06:28:50.478Z,8.19
2023-02-19T06:31:19.906Z,8.18
2023-02-19T06:33:48.136Z,8.13
2023-02-19T06:36:19.367Z,8.12
2023-02-19T06:38:47.566Z,8.11
2023-02-19T06:41:16.273Z,8.10
2023-02-19T06:43:44.655Z,8.10
2023-02-19T06:46:13.678Z,8.13
2023-02-19T06:48:43.219Z,8.19
2023-02-19T06:51:14.006Z,8.18
2023-02-19T06:53:43.458Z,8.17
2023-02-19T06:56:26.836Z,8.19
2023-02-19T06:58:56.153Z,8.13
2023-02-19T07:01:25.367Z,8.12
2023-02-19T07:03:54.110Z,8.11
2023-02-19T07:06:23.329Z,8.09
2023-02-19T07:08:54.145Z,8.14
2023-02-19T07:11:22.343Z,8.15
2023-02-19T07:13:55.707Z,8.15
2023-02-19T07:16:24.512Z,8.12
2023-02-19T07:18:52.643Z,8.11
2023-02-19T07:21:20.774Z,8.11
2023-02-19T07:23:48.793Z,8.11
2023-02-19T07:26:20.164Z,8.14
2023-02-19T07:28:50.305Z,8.09
2023-02-19T07:31:20.757Z,8.11
2023-02-19T07:33:49.356Z,8.15
2023-02-19T07:36:21.515Z,8.14
2023-02-19T07:38:56.096Z,8.09
2023-02-19T07:41:26.678Z,8.12
2023-02-19T07:43:55.346Z,8.15
2023-02-19T07:46:24.274Z,8.11
2023-02-19T07:48:52.324Z,8.10
2023-02-19T07:51:21.365Z,8.09
2023-02-19T07:53:51.403Z,8.10
2023-02-19T07:56:20.473Z,8.11
2023-02-19T07:58:50.064Z,8.15
2023-02-19T08:01:19.547Z,8.10
2023-02-19T08:03:48.269Z,8.12
2023-02-19T08:06:18.182Z,8.10
2023-02-19T08:08:46.296Z,8.07
2023-02-19T08:11:31.747Z,8.18
2023-02-19T08:14:01.232Z,8.14
2023-02-19T08:16:42.435Z,8.25
2023-02-19T08:19:11.218Z,8.27
2023-02-19T08:21:39.216Z,8.27
2023-02-19T08:24:07.561Z,8.23
2023-02-19T08:26:35.892Z,8.28
2023-02-19T08:29:07.968Z,8.30
2023-02-19T08:31:36.785Z,8.36
2023-02-19T08:34:05.241Z,8.38
2023-02-19T08:36:33.398Z,8.38
2023-02-19T08:39:01.437Z,8.40
2023-02-19T08:41:29.582Z,8.43
2023-02-19T08:44:00.656Z,8.46
2023-02-19T08:46:30.083Z,8.43
2023-02-19T08:49:01.211Z,8.48
2023-02-19T08:51:29.246Z,8.49
2023-02-19T08:53:57.380Z,8.48
2023-02-19T08:56:25.569Z,8.56
2023-02-19T08:58:53.624Z,8.58
2023-02-19T09:01:21.673Z,8.65
2023-02-19T09:03:51.286Z,8.67
2023-02-19T09:06:21.311Z,8.67
2023-02-19T09:08:49.394Z,8.76
2023-02-19T09:11:17.889Z,8.75
2023-02-19T09:13:49.068Z,8.78
2023-02-19T09:16:17.354Z,8.82
2023-02-19T09:18:45.843Z,8.87
2023-02-19T09:21:15.399Z,8.82
2023-02-19T09:23:43.537Z,8.87
2023-02-19T09:26:14.006Z,8.89
2023-02-19T09:28:43.141Z,8.95
2023-02-19T09:31:13.329Z,8.95
2023-02-19T09:33:44.458Z,8.96
2023-02-19T09:36:13.225Z,8.94
2023-02-19T09:38:43.365Z,9.04
2023-02-19T09:41:19.664Z,9.04
2023-02-19T09:43:47.962Z,9.07
2023-02-19T09:46:29.004Z,9.08
2023-02-19T09:49:04.535Z,9.14
2023-02-19T09:51:39.166Z,9.04
2023-02-19T09:54:15.536Z,9.04
2023-02-19T09:56:43.745Z,9.03
2023-02-19T09:59:21.225Z,9.02
2023-02-19T10:01:53.401Z,9.00
2023-02-19T10:04:21.552Z,8.91
2023-02-19T10:06:50.825Z,8.93
2023-02-19T10:09:25.484Z,8.98
2023-02-19T10:11:55.978Z,9.01
2023-02-19T10:14:31.176Z,9.03
2023-02-19T10:17:02.154Z,9.01
2023-02-19T10:19:30.475Z,9.04
2023-02-19T10:21:58.530Z,9.13
2023-02-19T10:24:30.748Z,9.11
2023-02-19T10:26:58.860Z,9.03
2023-02-19T10:29:27.336Z,9.05
2023-02-19T10:32:18.271Z,9.02
2023-02-19T10:34:46.399Z,9.04
2023-02-19T10:37:18.122Z,9.12
2023-02-19T10:39:50.288Z,9.23
2023-02-19T10:42:20.456Z,9.17
2023-02-19T10:44:54.853Z,9.21
2023-02-19T10:47:25.471Z,9.18
2023-02-19T10:49:56.800Z,9.16
2023-02-19T10:52:28.029Z,9.10
2023-02-19T10:54:59.661Z,9.10
2023-02-19T10:57:35.179Z,9.05
2023-02-19T11:00:22.878Z,9.09
2023-02-19T11:02:51.120Z,8.99
2023-02-19T11:05:21.132Z,9.06
2023-02-19T11:07:51.131Z,9.02
2023-02-19T11:10:29.096Z,8.89
2023-02-19T11:13:00.780Z,8.85
2023-02-19T11:15:31.433Z,8.86
2023-02-19T11:18:04.787Z,8.78
2023-02-19T11:20:33.905Z,8.83
2023-02-19T11:23:07.479Z,8.74
2023-02-19T11:25:37.084Z,8.86
2023-02-19T11:28:08.726Z,8.83
2023-02-19T11:30:40.253Z,8.86
2023-02-19T11:33:22.415Z,8.81
2023-02-19T11:35:52.188Z,8.80
2023-02-19T11:38:21.742Z,8.83
2023-02-19T11:40:58.977Z,8.92
2023-02-19T11:43:44.084Z,9.03
2023-02-19T11:46:21.845Z,9.02
2023-02-19T11:49:09.216Z,9.04
2023-02-19T11:51:58.844Z,9.01
2023-02-19T11:54:45.436Z,8.99
2023-02-19T11:57:29.275Z,9.07
2023-02-19T12:00:04.913Z,9.11
2023-02-19T12:02:54.216Z,9.17
2023-02-19T12:05:38.231Z,9.19
2023-02-19T12:08:39.694Z,9.18
2023-02-19T12:11:30.016Z,9.19
2023-02-19T12:14:14.825Z,9.08
2023-02-19T12:16:48.279Z,9.10
2023-02-19T12:19:35.344Z,9.09
2023-02-19T12:22:26.749Z,9.16
2023-02-19T12:25:24.547Z,9.13
2023-02-19T12:28:08.051Z,9.16
2023-02-19T12:30:53.409Z,9.29
2023-02-19T12:33:56.857Z,9.24
2023-02-19T12:36:29.878Z,9.24
2023-02-19T12:39:06.934Z,9.24
2023-02-19T12:41:45.636Z,9.10
2023-02-19T12:44:19.622Z,8.99
2023-02-19T12:46:54.087Z,9.06
2023-02-19T12:49:28.606Z,9.12
2023-02-19T12:52:01.578Z,9.10
2023-02-19T12:54:35.886Z,9.14
2023-02-19T12:57:07.627Z,9.14
2023-02-19T12:59:40.484Z,9.20
2023-02-19T13:02:19.702Z,9.06
2023-02-19T13:04:54.246Z,9.13
2023-02-19T13:07:28.397Z,9.08
2023-02-19T13:10:01.837Z,9.10
2023-02-19T13:12:32.865Z,9.06
2023-02-19T13:15:03.858Z,9.05
2023-02-19T13:17:39.696Z,8.98
2023-02-19T13:20:19.079Z,8.85
2023-02-19T13:23:11.730Z,8.89
2023-02-19T13:25:55.184Z,8.91
2023-02-19T13:28:43.937Z,8.98
2023-02-19T13:31:33.265Z,8.91
2023-02-19T13:34:13.637Z,8.90
2023-02-19T13:36:42.882Z,8.88
2023-02-19T13:41:52.551Z,8.80
2023-02-19T13:44:22.945Z,8.77
2023-02-19T13:46:52.071Z,8.64
2023-02-19T13:49:43.585Z,8.71
2023-02-19T13:52:43.466Z,8.77
2023-02-19T13:55:52.456Z,8.74
2023-02-19T13:58:55.476Z,8.63
2023-02-19T14:01:56.617Z,8.68
2023-02-19T14:04:26.841Z,8.67
2023-02-19T14:07:46.325Z,8.68
2023-02-19T14:10:58.117Z,8.58
2023-02-19T14:14:01.644Z,8.53
2023-02-19T14:16:50.555Z,8.39
2023-02-19T14:19:46.746Z,8.42
2023-02-19T14:23:06.501Z,8.42
2023-02-19T14:25:52.704Z,8.41
2023-02-19T14:28:27.197Z,8.43
2023-02-19T14:30:57.344Z,8.36
2023-02-19T14:33:27.859Z,8.27
2023-02-19T14:36:00.240Z,8.21
2023-02-19T14:38:33.761Z,8.06
2023-02-19T14:41:03.800Z,8.10
2023-02-19T14:43:34.437Z,8.14
2023-02-19T14:46:08.576Z,8.11
2023-02-19T14:48:40.753Z,8.12
2023-02-19T14:51:14.034Z,8.10
2023-02-19T14:53:46.345Z,8.07
2023-02-19T14:56:23.125Z,8.07
2023-02-19T14:59:07.526Z,8.00
2023-02-19T15:01:35.659Z,8.07
2023-02-19T15:04:03.985Z,8.00
2023-02-19T15:06:32.857Z,7.98
2023-02-19T15:09:04.788Z,7.98
2023-02-19T15:11:36.300Z,8.03
2023-02-19T15:14:06.913Z,7.92
2023-02-19T15:16:37.164Z,7.94
2023-02-19T15:19:09.040Z,7.90
2023-02-19T15:21:41.049Z,7.88
2023-02-19T15:24:15.455Z,7.83
2023-02-19T15:26:51.566Z,7.82
2023-02-19T15:29:21.858Z,7.79
2023-02-19T15:31:52.638Z,7.64
2023-02-19T15:34:23.296Z,7.63
2023-02-19T15:36:54.109Z,7.61
2023-02-19T15:39:25.470Z,7.64
2023-02-19T15:42:00.602Z,7.65
2023-02-19T15:44:46.492Z,7.64
2023-02-19T15:47:21.880Z,7.65
2023-02-19T15:49:57.267Z,7.69
2023-02-19T15:52:35.230Z,7.49
2023-02-19T15:55:10.785Z,7.34
2023-02-19T15:57:48.438Z,7.48
2023-02-19T16:00:22.427Z,7.43
2023-02-19T16:02:50.790Z,7.27
2023-02-19T16:05:26.715Z,7.39
2023-02-19T16:08:09.320Z,7.36
2023-02-19T16:10:37.836Z,7.31
2023-02-19T16:13:08.538Z,7.26
2023-02-19T16:15:37.366Z,7.18
2023-02-19T16:18:06.300Z,7.25
2023-02-19T16:20:37.103Z,7.28
2023-02-19T16:23:11.022Z,7.27
2023-02-19T16:25:42.214Z,7.24
2023-02-19T16:28:21.118Z,7.10
2023-02-19T16:30:57.445Z,7.09
2023-02-19T16:33:37.406Z,7.03
2023-02-19T16:36:19.944Z,7.01
2023-02-19T16:39:01.315Z,7.06
2023-02-19T16:41:29.378Z,6.93
2023-02-19T16:43:58.771Z,6.93
2023-02-19T16:46:26.884Z,6.94
2023-02-19T16:48:55.682Z,7.09
2023-02-19T16:51:27.298Z,7.06
2023-02-19T16:53:57.604Z,7.05
2023-02-19T16:56:25.812Z,6.97
2023-02-19T16:58:53.924Z,6.95
2023-02-19T17:01:23.720Z,6.98
2023-02-19T17:03:54.379Z,6.94
2023-02-19T17:06:22.567Z,6.91
2023-02-19T17:08:50.608Z,6.93
2023-02-19T17:11:19.406Z,6.83
2023-02-19T17:13:48.261Z,6.78
2023-02-19T17:16:19.712Z,6.80
2023-02-19T17:18:49.824Z,6.86
2023-02-19T17:21:22.611Z,6.83
2023-02-19T17:23:50.532Z,6.83
2023-02-19T17:26:21.737Z,6.74
2023-02-19T17:28:50.083Z,6.73
2023-02-19T17:31:18.797Z,6.77
2023-02-19T17:33:46.890Z,6.74
2023-02-19T17:36:21.047Z,6.79
2023-02-19T17:38:49.223Z,6.77
2023-02-19T17:41:17.246Z,6.75
2023-02-19T17:43:45.725Z,6.74
2023-02-19T17:46:16.766Z,6.73
2023-02-19T17:48:45.023Z,6.67
2023-02-19T17:51:13.567Z,6.68
2023-02-19T17:53:43.700Z,6.65
2023-02-19T17:56:16.646Z,6.59
2023-02-19T17:58:44.788Z,6.58
2023-02-19T18:01:13.168Z,6.57
2023-02-19T18:03:41.773Z,6.54
2023-02-19T18:06:10.303Z,6.45
2023-02-19T18:08:38.778Z,6.46
2023-02-19T18:11:09.275Z,6.48
2023-02-19T18:13:37.581Z,6.48
2023-02-19T18:16:06.920Z,6.54
2023-02-19T18:18:35.008Z,6.54
2023-02-19T18:21:03.025Z,6.46
2023-02-19T18:23:31.104Z,6.40
2023-02-19T18:25:59.102Z,6.43
2023-02-19T18:28:28.480Z,6.42
2023-02-19T18:30:56.909Z,6.45
2023-02-19T18:33:25.381Z,6.47
2023-02-19T18:35:53.503Z,6.45
2023-02-19T18:38:24.344Z,6.46
2023-02-19T18:40:56.774Z,6.39
2023-02-19T18:43:26.666Z,6.36
2023-02-19T18:45:56.122Z,6.33
2023-02-19T18:48:26.609Z,6.26
2023-02-19T18:50:54.722Z,6.24
2023-02-19T18:53:22.821Z,6.29
2023-02-19T18:55:51.360Z,6.31
2023-02-19T18:58:20.080Z,6.29
2023-02-19T19:00:48.154Z,6.21
2023-02-19T19:03:20.625Z,6.20
2023-02-19T19:05:48.849Z,6.22
2023-02-19T19:08:17.097Z,6.24
2023-02-19T19:10:45.304Z,6.17
2023-02-19T19:13:13.291Z,6.13
2023-02-19T19:15:43.987Z,6.18
2023-02-19T19:18:12.181Z,6.17
2023-02-19T19:20:41.700Z,6.14
2023-02-19T19:23:09.758Z,6.12
2023-02-19T19:25:38.848Z,5.98
2023-02-19T19:28:06.830Z,5.98
2023-02-19T19:30:34.980Z,6.04
2023-02-19T19:33:03.648Z,6.02
2023-02-19T19:35:31.683Z,5.98
2023-02-19T19:38:01.078Z,6.00
2023-02-19T19:40:29.079Z,5.96
2023-02-19T19:42:57.152Z,5.87
2023-02-19T19:45:25.369Z,5.86
2023-02-19T19:47:54.444Z,5.85
2023-02-19T19:50:22.525Z,5.80
2023-02-19T19:52:50.533Z,5.77
2023-02-19T19:55:21.450Z,5.74
2023-02-19T19:57:49.789Z,5.68
2023-02-19T20:00:19.335Z,5.64
2023-02-19T20:02:47.678Z,5.55
2023-02-19T20:05:16.897Z,5.53
2023-02-19T20:07:45.501Z,5.48
2023-02-19T20:10:14.861Z,5.46
2023-02-19T20:12:44.521Z,5.47
2023-02-19T20:15:12.878Z,5.40
2023-02-19T20:17:40.954Z,5.38
2023-02-19T20:20:10.428Z,5.23
2023-02-19T20:22:39.512Z,5.19
2023-02-19T20:25:11.228Z,5.14
2023-02-19T20:27:39.301Z,5.11
2023-02-19T20:30:11.955Z,5.06
2023-02-19T20:32:39.831Z,5.03
2023-02-19T20:35:08.467Z,5.05
2023-02-19T20:37:39.055Z,5.01
2023-02-19T20:40:09.173Z,4.97
2023-02-19T20:42:37.218Z,4.91
2023-02-19T20:45:10.429Z,4.88
2023-02-19T20:47:40.372Z,4.81
2023-02-19T20:50:09.202Z,4.82
2023-02-19T20:52:37.256Z,4.82
2023-02-19T20:55:05.848Z,4.82
2023-02-19T20:57:33.935Z,4.78
2023-02-19T21:00:01.952Z,4.76
2023-02-19T21:02:31.554Z,4.76
2023-02-19T21:04:59.857Z,4.64
2023-02-19T21:07:28.525Z,4.64
2023-02-19T21:09:56.545Z,4.60
2023-02-19T21:12:24.621Z,4.56
2023-02-19T21:14:54.529Z,4.54
2023-02-19T21:17:22.541Z,4.46
2023-02-19T21:19:52.038Z,4.45
2023-02-19T21:22:20.132Z,4.45
2023-02-19T21:24:52.123Z,4.40
2023-02-19T21:27:22.970Z,4.38
2023-02-19T21:29:51.159Z,4.35
2023-02-19T21:32:19.472Z,4.37
2023-02-19T21:34:47.762Z,4.35
2023-02-19T21:37:17.213Z,4.31
2023-02-19T21:39:45.621Z,4.33
2023-02-19T21:42:13.650Z,4.25
2023-02-19T21:44:43.155Z,4.25
2023-02-19T21:47:14.480Z,4.23
2023-02-19T21:49:43.861Z,4.23
2023-02-19T21:52:12.134Z,4.21
2023-02-19T21:54:41.571Z,4.20
2023-02-19T21:57:10.469Z,4.19
2023-02-19T21:59:41.096Z,4.16
2023-02-19T22:02:10.574Z,4.12
2023-02-19T22:04:38.577Z,4.11
2023-02-19T22:07:06.697Z,4.11
2023-02-19T22:09:34.742Z,4.10
2023-02-19T22:12:04.299Z,4.09
2023-02-19T22:14:32.427Z,4.10
2023-02-19T22:17:00.497Z,4.12
2023-02-19T22:19:28.822Z,4.13
2023-02-19T22:21:57.433Z,4.10
2023-02-19T22:24:25.503Z,4.06
2023-02-19T22:26:57.154Z,4.03
2023-02-19T22:29:26.905Z,4.03
2023-02-19T22:31:55.030Z,4.01
2023-02-19T22:34:23.377Z,3.99
2023-02-19T22:36:51.501Z,4.00
2023-02-19T22:39:21.627Z,4.02
2023-02-19T22:41:50.149Z,4.03
2023-02-19T22:44:18.698Z,4.01
2023-02-19T22:46:53.157Z,3.98
2023-02-19T22:49:22.432Z,3.96
2023-02-19T22:51:53.108Z,3.93
2023-02-19T22:54:25.023Z,3.91
2023-02-19T22:56:53.344Z,3.91
2023-02-19T22:59:21.621Z,3.86
2023-02-19T23:01:51.270Z,3.85
2023-02-19T23:04:21.345Z,3.85
2023-02-19T23:06:49.503Z,3.85
2023-02-19T23:09:19.941Z,3.89
2023-02-19T23:11:47.992Z,3.89
2023-02-19T23:14:17.921Z,3.91
2023-02-19T23:16:46.126Z,3.88
2023-02-19T23:19:16.905Z,3.87
2023-02-19T23:21:46.459Z,3.86
2023-02-19T23:24:15.378Z,3.91
2023-02-19T23:26:44.437Z,3.90
2023-02-19T23:29:13.312Z,3.91
2023-02-19T23:31:41.444Z,3.96
2023-02-19T23:34:09.783Z,3.95
2023-02-19T23:36:45.551Z,3.96
2023-02-19T23:39:15.466Z,4.00
2023-02-19T23:41:47.918Z,3.99
2023-02-19T23:44:16.564Z,3.97
2023-02-19T23:46:44.897Z,3.98
2023-02-19T23:49:13.248Z,4.02
2023-02-19T23:51:45.183Z,4.03
2023-02-19T23:54:13.450Z,4.05
2023-02-19T23:56:44.497Z,4.08
2023-02-19T23:59:13.380Z,4.10
